createdAt,value
2023-03-31T00:00:54.194Z,3.88
2023-03-31T00:03:24.853Z,3.08
2023-03-31T00:05:58.261Z,3.13
2023-03-31T00:08:29.864Z,3.25
2023-03-31T00:11:00.812Z,2.88
2023-03-31T00:13:29.138Z,2.90
2023-03-31T00:15:58.198Z,2.70
2023-03-31T00:18:26.229Z,3.03
2023-03-31T00:20:54.559Z,2.55
2023-03-31T00:23:27.726Z,2.97
2023-03-31T00:25:55.870Z,3.15
2023-03-31T00:28:23.024Z,3.30
2023-03-31T00:30:50.593Z,3.08
2023-03-31T00:33:17.699Z,2.75
2023-03-31T00:35:45.954Z,2.97
2023-03-31T00:38:13.999Z,2.60
2023-03-31T00:40:51.865Z,3.58
2023-03-31T00:43:31.134Z,3.50
2023-03-31T00:46:04.601Z,2.50
2023-03-31T00:51:03.449Z,1.92
2023-03-31T00:53:34.380Z,2.58
2023-03-31T00:56:13.255Z,2.65
2023-03-31T00:58:45.843Z,1.77
2023-03-31T01:01:20.547Z,2.67
2023-03-31T01:03:48.121Z,2.95
2023-03-31T01:06:19.720Z,2.58
2023-03-31T01:08:49.987Z,2.33
2023-03-31T01:11:20.269Z,2.88
2023-03-31T01:13:50.886Z,2.80
2023-03-31T01:16:18.671Z,2.67
2023-03-31T01:18:49.516Z,2.13
2023-03-31T01:21:39.464Z,2.53
2023-03-31T01:24:47.242Z,2.53
2023-03-31T01:27:33.439Z,2.47
2023-03-31T01:30:10.372Z,2.90
2023-03-31T01:32:43.245Z,2.45
2023-03-31T01:35:35.885Z,3.00
2023-03-31T01:38:24.631Z,2.38
2023-03-31T01:41:04.040Z,2.90
2023-03-31T01:43:57.282Z,2.50
2023-03-31T01:47:10.506Z,2.00
2023-03-31T01:50:00.677Z,2.03
2023-03-31T01:53:08.152Z,2.92
2023-03-31T01:55:48.222Z,2.80
2023-03-31T01:58:18.083Z,2.17
2023-03-31T02:01:01.816Z,3.50
2023-03-31T02:03:35.000Z,3.47
2023-03-31T02:06:12.240Z,3.20
2023-03-31T02:08:45.772Z,3.00
2023-03-31T02:11:13.859Z,3.38
2023-03-31T02:13:45.225Z,2.60
2023-03-31T02:16:20.700Z,3.40
2023-03-31T02:18:50.050Z,3.15
2023-03-31T02:21:17.610Z,3.40
2023-03-31T02:23:45.807Z,2.65
2023-03-31T02:26:31.113Z,2.75
2023-03-31T02:28:58.817Z,2.78
2023-03-31T02:31:49.695Z,3.92
2023-03-31T02:34:16.868Z,2.55
2023-03-31T02:36:45.772Z,3.05
2023-03-31T02:39:17.815Z,3.85
2023-03-31T02:41:45.141Z,3.15
2023-03-31T02:44:12.346Z,2.78
2023-03-31T02:46:41.336Z,2.70
2023-03-31T02:49:11.387Z,2.95
2023-03-31T02:51:38.376Z,2.80
2023-03-31T02:54:23.874Z,2.40
2023-03-31T02:57:09.639Z,3.22
2023-03-31T02:59:49.647Z,3.55
2023-03-31T03:02:31.888Z,3.35
2023-03-31T03:05:20.131Z,3.28
2023-03-31T03:08:07.797Z,3.42
2023-03-31T03:10:44.073Z,3.17
2023-03-31T03:13:28.479Z,3.03
2023-03-31T03:16:19.755Z,2.45
2023-03-31T03:18:59.701Z,2.28
2023-03-31T03:21:27.642Z,2.58
2023-03-31T03:23:54.971Z,2.35
2023-03-31T03:26:23.850Z,2.45
2023-03-31T03:28:51.592Z,2.40
2023-03-31T03:31:19.477Z,2.38
2023-03-31T03:33:46.817Z,2.15
2023-03-31T03:36:14.039Z,2.47
2023-03-31T03:38:41.224Z,2.13
2023-03-31T03:41:09.257Z,2.55
2023-03-31T03:43:36.291Z,2.17
2023-03-31T03:46:03.551Z,2.95
2023-03-31T03:48:30.737Z,2.38
2023-03-31T03:51:00.427Z,2.30
2023-03-31T03:53:27.584Z,2.78
2023-03-31T03:55:54.656Z,1.73
2023-03-31T03:58:21.778Z,2.47
2023-03-31T04:00:49.275Z,1.80
2023-03-31T04:03:16.702Z,1.70
2023-03-31T04:05:44.232Z,2.17
2023-03-31T04:08:11.285Z,2.13
2023-03-31T04:10:38.793Z,2.05
2023-03-31T04:13:06.743Z,1.80
2023-03-31T04:15:33.850Z,1.70
2023-03-31T04:18:00.849Z,1.58
2023-03-31T04:20:30.543Z,1.70
2023-03-31T04:22:57.634Z,1.65
2023-03-31T04:25:24.757Z,1.90
2023-03-31T04:27:58.519Z,2.03
2023-03-31T04:33:01.660Z,0.88
2023-03-31T04:35:49.308Z,1.55
2023-03-31T04:38:21.982Z,1.75
2023-03-31T04:40:51.164Z,1.33
2023-03-31T04:43:20.680Z,2.38
2023-03-31T04:45:47.856Z,1.45
2023-03-31T04:48:14.915Z,1.73
2023-03-31T04:50:41.966Z,2.20
2023-03-31T04:53:09.089Z,2.22
2023-03-31T04:55:36.372Z,1.60
2023-03-31T04:58:03.515Z,2.10
2023-03-31T05:00:30.874Z,2.25
2023-03-31T05:03:00.018Z,3.08
2023-03-31T05:05:27.740Z,2.58
2023-03-31T05:07:54.734Z,2.45
2023-03-31T05:10:21.937Z,3.75
2023-03-31T05:12:49.353Z,3.33
2023-03-31T05:15:16.819Z,2.80
2023-03-31T05:17:44.900Z,2.80
2023-03-31T05:20:13.731Z,3.30
2023-03-31T05:22:43.803Z,2.67
2023-03-31T05:25:14.576Z,3.60
2023-03-31T05:27:41.649Z,2.30
2023-03-31T05:30:09.585Z,2.75
2023-03-31T05:32:36.696Z,2.90
2023-03-31T05:35:04.101Z,2.08
2023-03-31T05:37:31.577Z,2.80
2023-03-31T05:39:58.990Z,2.72
2023-03-31T05:42:26.046Z,2.47
2023-03-31T05:44:53.220Z,2.58
2023-03-31T05:47:20.336Z,2.80
2023-03-31T05:49:47.394Z,1.92
2023-03-31T05:52:14.487Z,2.47
2023-03-31T05:54:43.060Z,2.15
2023-03-31T05:57:10.643Z,2.13
2023-03-31T05:59:39.116Z,1.58
2023-03-31T06:02:06.613Z,2.03
2023-03-31T06:04:33.732Z,1.90
2023-03-31T06:07:00.877Z,1.65
2023-03-31T06:09:28.478Z,1.52
2023-03-31T06:11:55.976Z,1.08
2023-03-31T06:14:23.360Z,1.50
2023-03-31T06:16:50.570Z,1.48
2023-03-31T06:19:17.763Z,1.60
2023-03-31T06:21:44.863Z,1.40
2023-03-31T06:24:12.095Z,1.70
2023-03-31T06:26:40.391Z,1.35
2023-03-31T06:29:07.508Z,1.52
2023-03-31T06:31:34.773Z,1.83
2023-03-31T06:34:01.874Z,1.42
2023-03-31T06:36:28.899Z,1.50
2023-03-31T06:38:55.961Z,1.80
2023-03-31T06:41:23.216Z,1.30
2023-03-31T06:43:50.501Z,1.67
2023-03-31T06:46:17.825Z,2.40
2023-03-31T06:48:44.973Z,1.85
2023-03-31T06:51:13.008Z,1.23
2023-03-31T06:53:40.736Z,1.27
2023-03-31T06:56:08.092Z,1.38
2023-03-31T06:58:36.379Z,1.25
2023-03-31T07:01:06.090Z,0.90
2023-03-31T07:03:33.916Z,1.30
2023-03-31T07:06:01.150Z,1.52
2023-03-31T07:08:28.331Z,0.98
2023-03-31T07:10:58.195Z,1.25
2023-03-31T07:13:26.189Z,1.33
2023-03-31T07:15:53.946Z,0.95
2023-03-31T07:18:21.679Z,1.42
2023-03-31T07:20:50.568Z,0.90
2023-03-31T07:23:18.335Z,1.10
2023-03-31T07:25:46.958Z,0.68
2023-03-31T07:28:14.597Z,0.60
2023-03-31T07:30:41.872Z,1.08
2023-03-31T07:33:09.624Z,1.33
2023-03-31T07:35:41.606Z,1.13
2023-03-31T07:38:12.396Z,1.13
2023-03-31T07:40:40.727Z,0.85
2023-03-31T07:43:07.930Z,1.33
2023-03-31T07:45:35.485Z,1.30
2023-03-31T07:48:02.943Z,0.90
2023-03-31T07:50:30.272Z,0.80
2023-03-31T07:52:57.658Z,1.20
2023-03-31T07:55:26.338Z,1.02
2023-03-31T07:57:53.518Z,1.63
2023-03-31T08:00:21.376Z,1.23
2023-03-31T08:02:48.991Z,1.25
2023-03-31T08:05:18.974Z,1.95
2023-03-31T08:07:48.324Z,1.40
2023-03-31T08:10:22.601Z,1.17
2023-03-31T08:12:49.667Z,1.23
2023-03-31T08:15:17.100Z,1.27
2023-03-31T08:17:44.406Z,1.30
2023-03-31T08:20:12.094Z,0.93
2023-03-31T08:22:40.841Z,1.45
2023-03-31T08:25:09.393Z,1.42
2023-03-31T08:27:42.491Z,1.33
2023-03-31T08:30:11.408Z,2.70
2023-03-31T08:32:38.802Z,2.33
2023-03-31T08:35:07.333Z,2.15
2023-03-31T08:37:34.742Z,1.55
2023-03-31T08:40:05.399Z,1.55
2023-03-31T08:42:53.481Z,1.52
2023-03-31T08:45:36.167Z,1.55
2023-03-31T08:48:11.322Z,1.90
2023-03-31T08:50:46.151Z,2.00
2023-03-31T08:53:21.950Z,1.77
2023-03-31T08:55:59.561Z,1.92
2023-03-31T08:58:43.572Z,1.63
2023-03-31T09:04:33.296Z,1.70
2023-03-31T09:07:12.602Z,2.55
2023-03-31T09:10:13.285Z,2.50
2023-03-31T09:13:08.016Z,3.45
2023-03-31T09:16:22.621Z,2.90
2023-03-31T09:18:53.386Z,3.15
2023-03-31T09:21:32.481Z,3.42
2023-03-31T09:24:14.053Z,3.40
2023-03-31T09:26:53.228Z,3.85
2023-03-31T09:29:24.503Z,4.18
2023-03-31T09:31:51.655Z,3.05
2023-03-31T09:34:29.463Z,3.97
2023-03-31T09:36:56.966Z,3.95
2023-03-31T09:39:24.084Z,3.17
2023-03-31T09:41:53.924Z,3.00
2023-03-31T09:44:28.447Z,3.45
2023-03-31T09:46:56.856Z,3.10
2023-03-31T09:49:28.196Z,3.53
2023-03-31T09:52:02.571Z,3.47
2023-03-31T09:54:44.589Z,3.20
2023-03-31T09:57:24.088Z,3.05
2023-03-31T09:59:52.095Z,3.33
2023-03-31T10:02:35.585Z,3.35
2023-03-31T10:05:05.068Z,3.20
2023-03-31T10:07:32.944Z,2.95
2023-03-31T10:10:01.541Z,3.85
2023-03-31T10:12:30.078Z,2.65
2023-03-31T10:15:19.159Z,3.65
2023-03-31T10:17:54.778Z,3.33
2023-03-31T10:20:39.702Z,4.03
2023-03-31T10:23:17.599Z,3.83
2023-03-31T10:25:47.262Z,2.97
2023-03-31T10:28:19.835Z,3.55
2023-03-31T10:30:53.480Z,3.25
2023-03-31T10:33:25.164Z,3.80
2023-03-31T10:36:00.300Z,2.72
2023-03-31T10:38:34.481Z,2.72
2023-03-31T10:41:02.388Z,3.03
2023-03-31T10:43:53.471Z,2.80
2023-03-31T10:46:21.304Z,2.78
2023-03-31T10:48:48.441Z,3.35
2023-03-31T10:51:19.855Z,2.08
2023-03-31T10:53:46.984Z,2.10
2023-03-31T10:56:23.634Z,3.55
2023-03-31T10:59:06.628Z,2.25
2023-03-31T11:01:40.667Z,2.87
2023-03-31T11:04:44.793Z,2.13
2023-03-31T11:07:33.576Z,2.38
2023-03-31T11:10:15.471Z,2.00
2023-03-31T11:13:06.849Z,2.60
2023-03-31T11:15:40.533Z,2.60
2023-03-31T11:20:46.064Z,2.50
2023-03-31T11:23:42.025Z,2.72
2023-03-31T11:26:26.058Z,2.25
2023-03-31T11:32:09.623Z,2.03
2023-03-31T11:34:55.364Z,2.33
2023-03-31T11:37:49.592Z,1.98
2023-03-31T11:40:38.004Z,2.60
2023-03-31T11:43:28.111Z,2.72
2023-03-31T11:46:16.353Z,2.58
2023-03-31T11:48:46.024Z,2.33
2023-03-31T11:51:54.921Z,2.35
2023-03-31T11:54:31.412Z,2.38
2023-03-31T11:57:07.211Z,1.80
2023-03-31T11:59:34.749Z,2.45
2023-03-31T12:02:14.576Z,1.67
2023-03-31T12:04:48.796Z,2.47
2023-03-31T12:07:27.639Z,2.75
2023-03-31T12:10:30.303Z,2.20
2023-03-31T12:13:21.986Z,2.38
2023-03-31T12:16:11.801Z,2.50
2023-03-31T12:18:49.901Z,3.22
2023-03-31T12:21:17.585Z,2.72
2023-03-31T12:23:45.625Z,2.80
2023-03-31T12:26:12.803Z,3.80
2023-03-31T12:28:42.512Z,2.90
2023-03-31T12:31:17.583Z,3.90
2023-03-31T12:33:50.242Z,2.88
2023-03-31T12:36:38.081Z,3.10
2023-03-31T12:39:29.021Z,3.05
2023-03-31T12:42:41.319Z,3.20
2023-03-31T12:45:25.886Z,3.00
2023-03-31T12:48:11.095Z,2.55
2023-03-31T12:50:56.458Z,3.88
2023-03-31T12:54:00.873Z,2.65
2023-03-31T12:56:28.051Z,2.58
2023-03-31T12:58:55.650Z,3.33
2023-03-31T13:01:24.016Z,3.38
2023-03-31T13:04:21.418Z,3.42
2023-03-31T13:06:54.622Z,3.00
2023-03-31T13:09:33.684Z,2.80
2023-03-31T13:12:08.481Z,3.58
2023-03-31T13:14:43.066Z,2.50
2023-03-31T13:17:22.751Z,3.28
2023-03-31T13:19:51.176Z,2.75
2023-03-31T13:22:36.384Z,3.05
2023-03-31T13:25:26.369Z,2.25
2023-03-31T13:27:54.073Z,2.67
2023-03-31T13:30:36.613Z,2.83
2023-03-31T13:33:17.757Z,3.05
2023-03-31T13:35:48.492Z,2.60
2023-03-31T13:38:51.232Z,2.80
2023-03-31T13:41:33.734Z,5.20
2023-03-31T13:44:19.602Z,2.75
2023-03-31T13:46:53.604Z,2.45
2023-03-31T13:49:44.373Z,2.45
2023-03-31T13:52:13.144Z,4.72
2023-03-31T13:54:49.720Z,3.30
2023-03-31T13:57:38.925Z,3.47
2023-03-31T14:00:21.721Z,3.25
2023-03-31T14:03:06.686Z,3.72
2023-03-31T14:05:40.661Z,2.63
2023-03-31T14:08:24.560Z,4.13
2023-03-31T14:10:51.844Z,4.35
2023-03-31T14:13:24.539Z,2.58
2023-03-31T14:15:58.225Z,1.45
2023-03-31T14:21:13.777Z,1.55
2023-03-31T14:23:53.809Z,3.65
2023-03-31T14:26:35.995Z,4.93
2023-03-31T14:29:18.200Z,3.03
2023-03-31T14:31:55.937Z,3.63
2023-03-31T14:34:34.859Z,4.93
2023-03-31T14:37:06.105Z,3.20
2023-03-31T14:39:36.518Z,3.75
2023-03-31T14:42:11.539Z,2.65
2023-03-31T14:44:40.489Z,4.47
2023-03-31T14:47:14.060Z,3.20
2023-03-31T14:49:41.214Z,6.63
2023-03-31T14:52:21.014Z,3.88
2023-03-31T14:54:48.163Z,2.67
2023-03-31T14:57:22.342Z,3.17
2023-03-31T14:59:52.509Z,3.85
2023-03-31T15:02:37.824Z,2.05
2023-03-31T15:05:10.050Z,2.00
2023-03-31T15:07:40.974Z,1.98
2023-03-31T15:10:08.538Z,1.30
2023-03-31T15:12:38.375Z,2.28
2023-03-31T15:15:06.946Z,2.40
2023-03-31T15:17:43.062Z,4.85
2023-03-31T15:20:35.639Z,3.42
2023-03-31T15:23:05.665Z,2.28
2023-03-31T15:25:36.410Z,2.35
2023-03-31T15:28:11.671Z,1.95
2023-03-31T15:30:39.539Z,2.30
2023-03-31T15:33:19.148Z,2.03
2023-03-31T15:35:47.356Z,1.98
2023-03-31T15:38:18.194Z,1.85
2023-03-31T15:40:52.646Z,1.40
2023-03-31T15:43:31.296Z,3.00
2023-03-31T15:46:02.554Z,2.70
2023-03-31T15:48:33.575Z,2.70
2023-03-31T15:51:25.752Z,3.10
2023-03-31T15:53:54.547Z,2.08
2023-03-31T15:56:46.594Z,1.45
2023-03-31T15:59:27.438Z,1.60
2023-03-31T16:04:33.937Z,1.58
2023-03-31T16:09:47.615Z,1.50
2023-03-31T16:12:35.364Z,2.03
2023-03-31T16:15:09.726Z,1.88
2023-03-31T16:17:43.133Z,2.10
2023-03-31T16:20:20.541Z,1.90
2023-03-31T16:22:51.970Z,1.88
2023-03-31T16:25:22.895Z,1.67
2023-03-31T16:27:56.268Z,2.05
2023-03-31T16:30:36.339Z,1.95
2023-03-31T16:33:03.339Z,5.80
2023-03-31T16:35:41.765Z,2.88
2023-03-31T16:38:13.728Z,2.95
2023-03-31T16:40:44.923Z,2.40
2023-03-31T16:43:20.318Z,3.90
2023-03-31T16:45:55.479Z,2.55
2023-03-31T16:48:24.863Z,3.72
2023-03-31T16:50:54.414Z,2.70
2023-03-31T16:53:27.902Z,1.83
2023-03-31T16:55:56.238Z,9.98
2023-03-31T16:58:25.036Z,2.35
2023-03-31T17:00:53.315Z,1.50
2023-03-31T17:03:20.604Z,1.58
2023-03-31T17:05:52.704Z,2.67
2023-03-31T17:08:22.079Z,2.25
2023-03-31T17:10:55.256Z,1.17
2023-03-31T17:13:22.325Z,2.63
2023-03-31T17:15:49.611Z,4.68
2023-03-31T17:18:17.934Z,2.60
2023-03-31T17:20:45.696Z,2.88
2023-03-31T17:23:13.068Z,3.35
2023-03-31T17:25:49.967Z,1.75
2023-03-31T17:28:17.128Z,2.25
2023-03-31T17:30:47.752Z,2.10
2023-03-31T17:33:16.127Z,2.17
2023-03-31T17:35:43.917Z,1.92
2023-03-31T17:38:14.251Z,1.33
2023-03-31T17:40:43.145Z,1.50
2023-03-31T17:43:11.172Z,1.85
2023-03-31T17:45:38.295Z,1.70
2023-03-31T17:48:06.597Z,2.20
2023-03-31T17:50:33.834Z,1.90
2023-03-31T17:53:01.629Z,2.08
2023-03-31T17:55:28.729Z,2.63
2023-03-31T17:57:56.381Z,3.20
2023-03-31T18:00:23.605Z,3.00
2023-03-31T18:02:51.348Z,2.20
2023-03-31T18:05:18.648Z,2.35
2023-03-31T18:07:45.762Z,2.78
2023-03-31T18:10:13.082Z,2.47
2023-03-31T18:12:41.100Z,2.47
2023-03-31T18:15:10.399Z,3.33
2023-03-31T18:17:37.475Z,2.60
2023-03-31T18:20:05.450Z,2.53
2023-03-31T18:22:32.614Z,2.95
2023-03-31T18:24:59.644Z,2.60
2023-03-31T18:27:27.282Z,3.30
2023-03-31T18:29:54.389Z,2.40
2023-03-31T18:32:21.436Z,2.80
2023-03-31T18:34:48.490Z,3.05
2023-03-31T18:37:15.572Z,6.70
2023-03-31T18:39:43.178Z,20.42
2023-03-31T18:42:10.899Z,8.30
2023-03-31T18:44:39.566Z,8.95
2023-03-31T18:47:07.162Z,6.10
2023-03-31T18:49:34.353Z,10.25
2023-03-31T18:52:04.006Z,10.55
2023-03-31T18:54:31.129Z,11.68
2023-03-31T18:56:58.214Z,6.05
2023-03-31T18:59:25.371Z,15.43
2023-03-31T19:01:53.772Z,10.02
2023-03-31T19:04:20.797Z,8.77
2023-03-31T19:06:47.879Z,9.48
2023-03-31T19:09:15.093Z,16.92
2023-03-31T19:11:42.473Z,12.85
2023-03-31T19:14:09.884Z,7.18
2023-03-31T19:16:42.753Z,8.38
2023-03-31T19:19:11.412Z,7.72
2023-03-31T19:21:40.020Z,11.48
2023-03-31T19:24:07.259Z,9.57
2023-03-31T19:26:34.429Z,9.13
2023-03-31T19:29:03.095Z,10.57
2023-03-31T19:31:33.117Z,9.60
2023-03-31T19:34:01.614Z,6.20
2023-03-31T19:36:28.738Z,7.57
2023-03-31T19:38:55.821Z,7.20
2023-03-31T19:41:22.905Z,8.02
2023-03-31T19:43:50.269Z,5.43
2023-03-31T19:46:18.436Z,6.00
2023-03-31T19:48:46.578Z,10.70
2023-03-31T19:51:14.137Z,5.47
2023-03-31T19:53:41.181Z,4.13
2023-03-31T19:56:11.092Z,4.05
2023-03-31T19:58:38.438Z,5.32
2023-03-31T20:01:08.341Z,5.20
2023-03-31T20:03:35.699Z,4.75
2023-03-31T20:06:11.688Z,5.30
2023-03-31T20:08:44.133Z,6.40
2023-03-31T20:11:14.220Z,4.75
2023-03-31T20:13:42.825Z,5.30
2023-03-31T20:16:14.079Z,4.88
2023-03-31T20:18:44.065Z,4.70
2023-03-31T20:21:14.569Z,4.85
2023-03-31T20:23:43.075Z,5.40
2023-03-31T20:26:17.510Z,5.43
2023-03-31T20:28:46.548Z,5.07
2023-03-31T20:31:19.807Z,6.55
2023-03-31T20:33:47.463Z,7.43
2023-03-31T20:36:19.743Z,5.85
2023-03-31T20:38:51.131Z,7.43
2023-03-31T20:41:24.340Z,5.72
2023-03-31T20:43:51.749Z,6.93
2023-03-31T20:46:18.971Z,7.57
2023-03-31T20:48:48.269Z,5.93
2023-03-31T20:51:20.757Z,6.10
2023-03-31T20:53:50.310Z,5.85
2023-03-31T20:56:25.966Z,6.38
2023-03-31T20:58:54.934Z,5.68
2023-03-31T21:01:22.180Z,5.00
2023-03-31T21:03:50.024Z,6.10
2023-03-31T21:06:20.512Z,5.15
2023-03-31T21:08:51.943Z,5.80
2023-03-31T21:11:19.132Z,6.72
2023-03-31T21:13:48.078Z,6.25
2023-03-31T21:16:16.206Z,6.43
2023-03-31T21:18:44.235Z,4.88
2023-03-31T21:21:14.152Z,5.40
2023-03-31T21:23:41.833Z,6.63
2023-03-31T21:26:11.362Z,5.68
2023-03-31T21:28:39.702Z,6.13
2023-03-31T21:31:10.977Z,4.47
2023-03-31T21:33:41.672Z,5.28
2023-03-31T21:36:17.883Z,5.65
2023-03-31T21:38:45.539Z,4.57
2023-03-31T21:41:15.833Z,4.82
2023-03-31T21:43:44.107Z,4.72
2023-03-31T21:46:20.212Z,4.63
2023-03-31T21:48:48.918Z,4.35
2023-03-31T21:51:17.723Z,4.35
2023-03-31T21:53:44.997Z,4.70
2023-03-31T21:56:12.329Z,4.45
2023-03-31T21:58:39.954Z,4.47
2023-03-31T22:01:08.387Z,5.30
2023-03-31T22:03:35.661Z,4.50
2023-03-31T22:06:06.824Z,4.63
2023-03-31T22:08:36.633Z,5.25
2023-03-31T22:11:05.736Z,5.32
2023-03-31T22:13:32.893Z,4.25
2023-03-31T22:16:01.812Z,4.78
2023-03-31T22:18:30.490Z,4.70
2023-03-31T22:20:57.967Z,4.35
2023-03-31T22:23:26.048Z,5.32
2023-03-31T22:25:53.089Z,4.57
2023-03-31T22:28:20.249Z,4.90
2023-03-31T22:30:47.643Z,4.93
2023-03-31T22:33:14.776Z,4.35
2023-03-31T22:35:41.924Z,4.32
2023-03-31T22:38:13.013Z,3.83
2023-03-31T22:40:41.311Z,3.25
2023-03-31T22:43:08.611Z,3.65
2023-03-31T22:45:37.848Z,3.08
2023-03-31T22:48:05.745Z,3.28
2023-03-31T22:50:32.879Z,3.47
2023-03-31T22:52:59.959Z,3.03
2023-03-31T22:55:27.255Z,3.65
2023-03-31T22:57:54.315Z,3.38
2023-03-31T23:00:21.375Z,3.92
2023-03-31T23:02:48.531Z,3.50
2023-03-31T23:05:15.793Z,3.05
2023-03-31T23:07:43.273Z,3.10
2023-03-31T23:10:11.302Z,3.70
2023-03-31T23:12:38.363Z,4.38
2023-03-31T23:15:05.624Z,4.30
2023-03-31T23:17:32.698Z,5.55
2023-03-31T23:19:59.867Z,4.90
2023-03-31T23:22:26.891Z,4.25
2023-03-31T23:24:53.924Z,5.00
2023-03-31T23:27:21.412Z,6.35
2023-03-31T23:29:48.449Z,6.22
2023-03-31T23:32:15.573Z,6.03
2023-03-31T23:34:43.512Z,6.03
2023-03-31T23:37:14.629Z,7.50
2023-03-31T23:39:41.922Z,6.75
2023-03-31T23:42:15.902Z,6.57
2023-03-31T23:44:43.240Z,7.13
2023-03-31T23:47:11.256Z,7.78
2023-03-31T23:49:38.251Z,7.50
2023-03-31T23:52:05.484Z,9.10
2023-03-31T23:54:32.713Z,9.05
2023-03-31T23:56:59.840Z,10.70
2023-03-31T23:59:26.891Z,9.75
